Sainte-Anne-Du-Lac, Canada
Current Conditions -  °F | °C
As of 7:00 PM on Friday 31 Oct 2014 (Local Time) from CYMX Reporting Station
Overcast Overcast  
Wind Chill: 36°   Ceiling: 20000
Heat Index: 39°   Visibility: 25mi
Dew Point: 25°   Wind: 5mph
Humidity: 56%   Direction: 60°ENE
Pressure: 30.1"   Gusts: NA
Location:  46.87°N, 75.32°W
Report Text: CYMX 312300Z 06004KT 25SM FEW050 SCT120 OVC200 04/M04 A3010 RMK SC1AC3CI5 SC TR SLP198
Loading
Personal Weather Stations






























Interactive Weather Map
Tropical Storm Tracking
New forecast layout! Learn more

10-Day Weather Forecast

Advertisements
Track Severe Weather on mobile